Terminal Aerodrome Forecast
Issued by NWS Missoula, MT

Home | Current Version | Previous Version | Text Only | Print | Product List | Glossary On
Versions: 1 2 3 4 5 6 7 8 9 10 11 12 13 14 15
000
FTUS45 KMSO 281735
TAFMSO
TAF
KMSO 281735Z 2818/2918 VRB03KT 2SM FU SCT100
     FM282200 31012G20KT 3SM FU BKN100
     FM290200 VRB03KT 2SM FU BKN100=

USA.gov is the U.S. government's official web portal to all federal, state and local government web resources and services.